createdAt,value
2018-05-04T00:00:16.679Z,46.67
2018-05-04T00:02:43.007Z,46.77
2018-05-04T00:05:09.360Z,46.72
2018-05-04T00:07:35.692Z,46.76
2018-05-04T00:10:02.142Z,46.73
2018-05-04T00:12:28.476Z,46.80
2018-05-04T00:14:54.793Z,46.91
2018-05-04T00:17:21.116Z,46.86
2018-05-04T00:19:47.472Z,46.74
2018-05-04T00:22:13.800Z,46.80
2018-05-04T00:24:40.122Z,46.75
2018-05-04T00:27:06.476Z,46.85
2018-05-04T00:29:32.862Z,46.80
2018-05-04T00:31:59.357Z,46.86
2018-05-04T00:34:25.741Z,46.84
2018-05-04T00:36:52.122Z,46.83
2018-05-04T00:39:18.864Z,46.91
2018-05-04T00:41:45.219Z,46.88
2018-05-04T00:44:11.606Z,46.87
2018-05-04T00:46:37.920Z,46.91
2018-05-04T00:49:04.242Z,46.98
2018-05-04T00:51:30.561Z,46.91
2018-05-04T00:53:56.904Z,46.84
2018-05-04T00:56:23.232Z,46.89
2018-05-04T00:58:49.583Z,46.92
2018-05-04T01:01:16.073Z,47.02
2018-05-04T01:03:42.398Z,47.18
2018-05-04T01:06:08.726Z,47.22
2018-05-04T01:08:35.063Z,47.39
2018-05-04T01:11:01.385Z,47.59
2018-05-04T01:13:27.743Z,47.81
2018-05-04T01:15:54.059Z,48.03
2018-05-04T01:18:20.424Z,47.96
2018-05-04T01:20:46.781Z,48.05
2018-05-04T01:23:13.109Z,48.26
2018-05-04T01:25:39.438Z,48.33
2018-05-04T01:28:05.777Z,48.25
2018-05-04T01:30:32.105Z,48.28
2018-05-04T01:32:58.437Z,48.32
2018-05-04T01:35:24.765Z,48.46
2018-05-04T01:37:51.101Z,48.45
2018-05-04T01:40:17.469Z,48.76
2018-05-04T01:42:43.791Z,48.82
2018-05-04T01:45:10.109Z,48.86
2018-05-04T01:47:36.441Z,48.99
2018-05-04T01:50:02.806Z,49.09
2018-05-04T01:52:29.149Z,49.04
2018-05-04T01:54:55.485Z,49.00
2018-05-04T01:57:21.893Z,49.18
2018-05-04T01:59:48.398Z,49.02
2018-05-04T02:02:14.736Z,49.04
2018-05-04T02:04:41.107Z,49.20
2018-05-04T02:07:07.940Z,49.00
2018-05-04T02:09:34.329Z,49.19
2018-05-04T02:12:00.723Z,49.16
2018-05-04T02:14:27.229Z,49.28
2018-05-04T02:16:53.747Z,49.13
2018-05-04T02:19:20.212Z,49.13
2018-05-04T02:21:46.753Z,49.10
2018-05-04T02:24:13.134Z,49.15
2018-05-04T02:26:39.553Z,49.18
2018-05-04T02:29:05.943Z,49.27
2018-05-04T02:31:32.450Z,49.13
2018-05-04T02:33:59.023Z,49.10
2018-05-04T02:36:25.373Z,49.28
2018-05-04T02:38:51.719Z,49.27
2018-05-04T02:41:18.390Z,49.15
2018-05-04T02:43:44.764Z,49.25
2018-05-04T02:46:11.192Z,49.22
2018-05-04T02:48:37.653Z,49.01
2018-05-04T02:51:04.068Z,48.99
2018-05-04T02:53:30.433Z,49.05
2018-05-04T02:55:56.832Z,49.02
2018-05-04T02:58:23.250Z,49.02
2018-05-04T03:00:49.629Z,49.08
2018-05-04T03:03:16.247Z,49.12
2018-05-04T03:05:42.644Z,49.15
2018-05-04T03:08:09.076Z,49.00
2018-05-04T03:10:35.463Z,49.09
2018-05-04T03:13:01.835Z,49.08
2018-05-04T03:15:28.200Z,49.20
2018-05-04T03:17:54.512Z,49.10
2018-05-04T03:20:20.883Z,48.93
2018-05-04T03:22:47.290Z,48.83
2018-05-04T03:25:13.663Z,48.74
2018-05-04T03:27:39.992Z,48.68
2018-05-04T03:30:06.369Z,48.51
2018-05-04T03:32:32.788Z,48.58
2018-05-04T03:34:59.172Z,48.51
2018-05-04T03:37:25.587Z,48.41
2018-05-04T03:39:52.192Z,48.71
2018-05-04T03:42:18.939Z,48.51
2018-05-04T03:44:45.348Z,48.58
2018-05-04T03:47:11.692Z,48.50
2018-05-04T03:49:38.060Z,48.52
2018-05-04T03:52:04.628Z,48.46
2018-05-04T03:54:30.994Z,48.50
2018-05-04T03:56:57.332Z,48.52
2018-05-04T03:59:24.079Z,48.57
2018-05-04T04:01:50.436Z,48.65
2018-05-04T04:04:16.804Z,48.60
2018-05-04T04:06:43.212Z,48.67
2018-05-04T04:09:09.575Z,48.77
2018-05-04T04:11:35.948Z,48.68
2018-05-04T04:14:02.457Z,48.66
2018-05-04T04:16:29.880Z,48.70
2018-05-04T04:18:56.311Z,48.78
2018-05-04T04:21:22.660Z,48.73
2018-05-04T04:23:49.444Z,48.75
2018-05-04T04:26:15.994Z,48.65
2018-05-04T04:28:43.006Z,48.66
2018-05-04T04:31:09.609Z,48.54
2018-05-04T04:33:35.991Z,48.63
2018-05-04T04:36:02.579Z,48.64
2018-05-04T04:38:29.260Z,48.64
2018-05-04T04:40:56.298Z,48.74
2018-05-04T04:43:23.022Z,48.73
2018-05-04T04:45:50.324Z,48.78
2018-05-04T04:48:16.796Z,48.79
2018-05-04T04:50:44.306Z,48.73
2018-05-04T04:53:10.797Z,48.76
2018-05-04T04:55:37.576Z,48.82
2018-05-04T04:58:04.005Z,48.87
2018-05-04T05:00:30.407Z,48.91
2018-05-04T05:02:56.893Z,48.78
2018-05-04T05:05:23.376Z,48.78
2018-05-04T05:07:50.570Z,48.64
2018-05-04T05:10:17.117Z,48.87
2018-05-04T05:12:43.621Z,48.87
2018-05-04T05:15:10.341Z,48.80
2018-05-04T05:17:36.778Z,48.89
2018-05-04T05:20:03.726Z,48.90
2018-05-04T05:22:31.729Z,48.92
2018-05-04T05:24:58.331Z,49.14
2018-05-04T05:27:25.263Z,49.02
2018-05-04T05:29:53.693Z,48.84
2018-05-04T05:32:20.176Z,49.18
2018-05-04T05:34:46.975Z,48.78
2018-05-04T05:39:46.913Z,48.73
2018-05-04T05:42:13.445Z,48.86
2018-05-04T05:44:42.547Z,49.06
2018-05-04T05:47:09.843Z,48.93
2018-05-04T05:49:36.490Z,48.80
2018-05-04T05:52:03.389Z,48.67
2018-05-04T05:54:32.585Z,48.77
2018-05-04T05:56:59.276Z,48.86
2018-05-04T05:59:25.899Z,48.99
2018-05-04T06:01:52.569Z,48.81
2018-05-04T06:04:19.188Z,49.21
2018-05-04T06:06:46.051Z,49.02
2018-05-04T06:09:12.938Z,48.60
2018-05-04T06:11:39.517Z,48.56
2018-05-04T06:14:06.276Z,48.49
2018-05-04T06:16:33.448Z,48.49
2018-05-04T06:19:00.092Z,48.50
2018-05-04T06:21:34.319Z,48.46
2018-05-04T06:24:06.306Z,48.25
2018-05-04T06:31:57.651Z,48.24
2018-05-04T06:34:24.023Z,48.65
2018-05-04T06:36:50.401Z,48.34
2018-05-04T06:39:16.850Z,48.63
2018-05-04T06:41:43.266Z,48.78
2018-05-04T06:44:09.786Z,48.20
2018-05-04T06:46:36.182Z,48.44
2018-05-04T06:49:02.754Z,48.26
2018-05-04T06:51:29.397Z,48.52
2018-05-04T06:53:55.814Z,48.18
2018-05-04T06:56:22.240Z,48.28
2018-05-04T06:58:48.895Z,48.37
2018-05-04T07:01:15.454Z,48.43
2018-05-04T07:03:41.892Z,48.28
2018-05-04T07:06:08.300Z,48.55
2018-05-04T07:08:34.767Z,48.50
2018-05-04T07:11:01.123Z,48.31
2018-05-04T07:13:27.523Z,48.55
2018-05-04T07:15:54.007Z,48.56
2018-05-04T07:18:20.368Z,48.42
2018-05-04T07:20:46.793Z,48.40
2018-05-04T07:23:13.500Z,48.35
2018-05-04T07:25:40.008Z,48.15
2018-05-04T07:28:06.474Z,48.38
2018-05-04T07:30:33.302Z,48.22
2018-05-04T07:33:00.210Z,48.37
2018-05-04T07:35:27.089Z,48.34
2018-05-04T07:37:53.566Z,48.48
2018-05-04T07:40:20.297Z,48.35
2018-05-04T07:42:46.959Z,48.31
2018-05-04T07:45:13.499Z,48.33
2018-05-04T07:47:39.895Z,48.37
2018-05-04T07:50:06.338Z,48.37
2018-05-04T07:52:34.081Z,48.44
2018-05-04T07:55:00.540Z,48.66
2018-05-04T07:57:27.949Z,48.44
2018-05-04T07:59:54.583Z,48.33
2018-05-04T08:02:21.077Z,48.30
2018-05-04T08:04:47.534Z,48.27
2018-05-04T08:07:13.986Z,48.48
2018-05-04T08:09:40.568Z,48.44
2018-05-04T08:12:07.420Z,48.31
2018-05-04T08:14:33.881Z,48.28
2018-05-04T08:17:00.298Z,48.31
2018-05-04T08:19:27.279Z,48.34
2018-05-04T08:21:54.992Z,48.28
2018-05-04T08:24:22.183Z,48.21
2018-05-04T08:26:48.705Z,48.20
2018-05-04T08:29:15.045Z,48.34
2018-05-04T08:31:41.406Z,48.19
2018-05-04T08:34:08.282Z,48.09
2018-05-04T08:36:34.882Z,47.99
2018-05-04T08:39:01.336Z,48.15
2018-05-04T08:41:28.205Z,48.33
2018-05-04T08:43:54.707Z,48.11
2018-05-04T08:46:21.118Z,48.12
2018-05-04T08:48:47.807Z,48.07
2018-05-04T08:51:14.519Z,47.96
2018-05-04T08:53:40.922Z,48.12
2018-05-04T08:56:07.281Z,47.91
2018-05-04T08:58:33.697Z,47.92
2018-05-04T09:01:00.160Z,48.06
2018-05-04T09:03:26.532Z,47.77
2018-05-04T09:05:53.139Z,47.74
2018-05-04T09:08:19.768Z,47.78
2018-05-04T09:10:51.311Z,47.72
2018-05-04T09:13:18.394Z,47.59
2018-05-04T09:15:44.905Z,47.50
2018-05-04T09:18:11.444Z,47.50
2018-05-04T09:20:37.881Z,47.38
2018-05-04T09:23:04.557Z,47.31
2018-05-04T09:25:31.105Z,47.60
2018-05-04T09:27:57.456Z,47.44
2018-05-04T09:30:23.826Z,47.42
2018-05-04T09:32:50.233Z,47.20
2018-05-04T09:35:16.707Z,47.23
2018-05-04T09:37:43.089Z,47.18
2018-05-04T09:40:09.415Z,47.14
2018-05-04T09:42:35.833Z,47.38
2018-05-04T09:45:02.494Z,47.52
2018-05-04T09:47:28.971Z,47.02
2018-05-04T09:49:55.596Z,47.28
2018-05-04T09:52:22.221Z,46.95
2018-05-04T09:54:48.859Z,46.80
2018-05-04T09:57:15.767Z,46.70
2018-05-04T09:59:42.270Z,46.60
2018-05-04T10:02:08.769Z,46.76
2018-05-04T10:04:35.742Z,46.49
2018-05-04T10:07:02.243Z,46.41
2018-05-04T10:09:28.621Z,46.61
2018-05-04T10:11:55.207Z,46.34
2018-05-04T10:14:21.855Z,46.35
2018-05-04T10:16:48.391Z,46.35
2018-05-04T10:19:14.925Z,46.49
2018-05-04T10:21:41.438Z,46.37
2018-05-04T10:24:07.989Z,46.33
2018-05-04T10:26:34.705Z,46.51
2018-05-04T10:29:01.169Z,46.35
2018-05-04T10:31:27.850Z,46.08
2018-05-04T10:33:54.439Z,45.89
2018-05-04T10:36:21.191Z,46.29
2018-05-04T10:38:47.948Z,46.14
2018-05-04T10:41:14.439Z,45.95
2018-05-04T10:43:40.992Z,45.98
2018-05-04T10:46:07.430Z,45.88
2018-05-04T10:48:34.169Z,46.03
2018-05-04T10:51:00.974Z,46.07
2018-05-04T10:53:28.889Z,45.69
2018-05-04T10:55:55.725Z,45.83
2018-05-04T10:58:22.553Z,45.78
2018-05-04T11:00:49.914Z,45.67
2018-05-04T11:03:16.656Z,45.74
2018-05-04T11:05:43.217Z,46.23
2018-05-04T11:08:09.829Z,45.81
2018-05-04T11:10:36.553Z,46.17
2018-05-04T11:13:03.009Z,46.09
2018-05-04T11:15:29.505Z,46.06
2018-05-04T11:17:56.293Z,45.86
2018-05-04T11:20:22.812Z,45.69
2018-05-04T11:22:49.756Z,45.67
2018-05-04T11:25:16.463Z,45.50
2018-05-04T11:27:43.039Z,45.42
2018-05-04T11:30:09.468Z,45.34
2018-05-04T11:32:36.002Z,45.23
2018-05-04T11:35:02.641Z,45.57
2018-05-04T11:37:29.171Z,45.61
2018-05-04T11:39:55.630Z,45.54
2018-05-04T11:42:22.515Z,45.22
2018-05-04T11:44:49.164Z,45.00
2018-05-04T11:47:15.777Z,45.20
2018-05-04T11:49:42.371Z,44.96
2018-05-04T11:52:09.202Z,44.87
2018-05-04T11:54:35.832Z,44.79
2018-05-04T11:57:02.580Z,44.63
2018-05-04T11:59:29.119Z,44.90
2018-05-04T12:01:55.753Z,44.55
2018-05-04T12:04:22.375Z,44.57
2018-05-04T12:06:48.896Z,44.45
2018-05-04T12:09:15.638Z,44.46
2018-05-04T12:11:42.202Z,44.29
2018-05-04T12:14:08.809Z,44.22
2018-05-04T12:16:35.393Z,44.45
2018-05-04T12:19:01.848Z,44.35
2018-05-04T12:21:28.445Z,44.25
2018-05-04T12:23:54.951Z,44.17
2018-05-04T12:26:21.475Z,43.93
2018-05-04T12:28:48.049Z,43.76
2018-05-04T12:31:14.682Z,43.90
2018-05-04T12:33:41.325Z,43.95
2018-05-04T12:36:07.841Z,43.98
2018-05-04T12:38:34.509Z,44.00
2018-05-04T12:41:01.267Z,44.06
2018-05-04T12:43:27.987Z,43.80
2018-05-04T12:45:54.511Z,43.74
2018-05-04T12:48:21.052Z,43.90
2018-05-04T12:50:47.700Z,43.84
2018-05-04T12:53:14.430Z,43.71
2018-05-04T12:55:41.166Z,43.94
2018-05-04T12:58:07.776Z,43.77
2018-05-04T13:00:35.472Z,43.86
2018-05-04T13:03:02.105Z,43.83
2018-05-04T13:05:29.354Z,43.77
2018-05-04T13:07:55.991Z,43.96
2018-05-04T13:10:22.602Z,43.77
2018-05-04T13:12:49.165Z,43.77
2018-05-04T13:15:15.602Z,43.84
2018-05-04T13:17:42.085Z,44.04
2018-05-04T13:20:08.636Z,43.95
2018-05-04T13:22:35.397Z,44.12
2018-05-04T13:25:01.985Z,44.06
2018-05-04T13:27:28.682Z,44.01
2018-05-04T13:29:55.731Z,44.16
2018-05-04T13:32:22.369Z,44.42
2018-05-04T13:34:49.007Z,44.48
2018-05-04T13:37:15.545Z,44.63
2018-05-04T13:39:42.067Z,44.54
2018-05-04T13:42:08.609Z,44.82
2018-05-04T13:44:35.246Z,44.79
2018-05-04T13:47:01.608Z,44.87
2018-05-04T13:49:28.174Z,44.93
2018-05-04T13:51:54.604Z,45.22
2018-05-04T13:54:21.009Z,45.00
2018-05-04T13:56:48.357Z,44.94
2018-05-04T13:59:14.692Z,45.46
2018-05-04T14:01:41.080Z,44.91
2018-05-04T14:04:07.424Z,45.12
2018-05-04T14:06:33.894Z,45.03
2018-05-04T14:09:00.215Z,45.04
2018-05-04T14:11:26.553Z,45.38
2018-05-04T14:13:52.921Z,45.08
2018-05-04T14:16:19.308Z,45.24
2018-05-04T14:18:45.739Z,45.22
2018-05-04T14:21:12.076Z,45.35
2018-05-04T14:23:38.476Z,45.60
2018-05-04T14:26:04.887Z,45.54
2018-05-04T14:28:31.353Z,45.70
2018-05-04T14:30:57.707Z,45.61
2018-05-04T14:33:24.162Z,45.60
2018-05-04T14:35:50.528Z,45.69
2018-05-04T14:38:16.896Z,45.86
2018-05-04T14:40:43.289Z,45.96
2018-05-04T14:43:09.686Z,46.09
2018-05-04T14:45:36.030Z,46.17
2018-05-04T14:48:02.374Z,46.28
2018-05-04T14:50:28.765Z,46.31
2018-05-04T14:52:55.090Z,46.44
2018-05-04T14:55:21.436Z,46.53
2018-05-04T14:57:47.806Z,46.47
2018-05-04T15:00:14.128Z,46.61
2018-05-04T15:02:40.480Z,46.70
2018-05-04T15:05:06.826Z,46.79
2018-05-04T15:07:33.192Z,46.86
2018-05-04T15:09:59.592Z,46.96
2018-05-04T15:12:25.920Z,47.05
2018-05-04T15:14:52.315Z,47.04
2018-05-04T15:17:18.753Z,47.15
2018-05-04T15:19:45.193Z,47.13
2018-05-04T15:22:11.565Z,47.19
2018-05-04T15:24:38.058Z,47.15
2018-05-04T15:27:04.597Z,47.34
2018-05-04T15:29:30.935Z,47.40
2018-05-04T15:31:57.274Z,47.35
2018-05-04T15:34:23.618Z,47.44
2018-05-04T15:36:49.940Z,47.41
2018-05-04T15:39:16.303Z,47.38
2018-05-04T15:41:42.652Z,47.22
2018-05-04T15:44:08.998Z,47.53
2018-05-04T15:46:35.325Z,47.42
2018-05-04T15:49:01.646Z,47.58
2018-05-04T15:51:27.984Z,47.47
2018-05-04T15:53:54.297Z,47.60
2018-05-04T15:56:20.684Z,47.54
2018-05-04T15:58:47.028Z,47.27
2018-05-04T16:01:13.426Z,47.39
2018-05-04T16:03:39.752Z,47.25
2018-05-04T16:06:06.145Z,47.20
2018-05-04T16:08:32.437Z,47.20
2018-05-04T16:10:58.751Z,47.37
2018-05-04T16:13:25.068Z,47.28
2018-05-04T16:15:51.390Z,47.34
2018-05-04T16:18:17.755Z,47.41
2018-05-04T16:20:44.078Z,47.50
2018-05-04T16:23:10.433Z,47.32
2018-05-04T16:25:36.752Z,47.34
2018-05-04T16:28:03.117Z,47.17
2018-05-04T16:30:29.441Z,47.11
2018-05-04T16:32:55.796Z,47.20
2018-05-04T16:35:22.111Z,47.37
2018-05-04T16:37:48.456Z,47.38
2018-05-04T16:40:14.859Z,47.28
2018-05-04T16:42:41.187Z,47.23
2018-05-04T16:45:07.504Z,47.15
2018-05-04T16:47:33.826Z,47.24
2018-05-04T16:50:00.169Z,47.15
2018-05-04T16:52:26.480Z,47.02
2018-05-04T16:54:52.807Z,46.99
2018-05-04T16:57:19.196Z,46.86
2018-05-04T16:59:45.509Z,46.99
2018-05-04T17:02:11.867Z,46.93
2018-05-04T17:04:38.176Z,46.91
2018-05-04T17:07:04.519Z,46.80
2018-05-04T17:09:30.833Z,46.67
2018-05-04T17:11:57.199Z,47.01
2018-05-04T17:14:23.519Z,47.02
2018-05-04T17:16:49.837Z,46.85
2018-05-04T17:19:16.162Z,46.79
2018-05-04T17:21:42.524Z,46.83
2018-05-04T17:24:08.848Z,46.79
2018-05-04T17:26:35.218Z,46.75
2018-05-04T17:29:01.550Z,46.70
2018-05-04T17:31:27.863Z,46.64
2018-05-04T17:33:54.184Z,46.54
2018-05-04T17:36:20.531Z,46.67
2018-05-04T17:38:46.940Z,46.67
2018-05-04T17:41:13.257Z,46.65
2018-05-04T17:43:39.577Z,46.65
2018-05-04T17:46:05.949Z,46.64
2018-05-04T17:48:32.270Z,46.60
2018-05-04T17:50:58.604Z,46.63
2018-05-04T17:53:24.930Z,46.60
2018-05-04T17:55:51.252Z,46.56
2018-05-04T17:58:17.619Z,46.47
2018-05-04T18:00:43.952Z,46.51
2018-05-04T18:03:10.334Z,46.53
2018-05-04T18:05:36.641Z,46.44
2018-05-04T18:08:02.977Z,46.41
2018-05-04T18:10:29.334Z,46.43
2018-05-04T18:12:55.657Z,46.41
2018-05-04T18:15:22.043Z,46.38
2018-05-04T18:17:48.417Z,46.36
2018-05-04T18:20:14.749Z,46.41
2018-05-04T18:22:41.105Z,46.38
2018-05-04T18:25:07.407Z,46.34
2018-05-04T18:27:33.761Z,46.36
2018-05-04T18:30:00.097Z,46.33
2018-05-04T18:32:26.407Z,46.30
2018-05-04T18:34:52.735Z,46.38
2018-05-04T18:37:19.119Z,46.34
2018-05-04T18:39:45.444Z,46.35
2018-05-04T18:42:11.765Z,46.31
2018-05-04T18:44:38.081Z,46.28
2018-05-04T18:47:04.441Z,46.30
2018-05-04T18:49:30.818Z,46.29
2018-05-04T18:51:57.143Z,46.31
2018-05-04T18:54:23.521Z,46.25
2018-05-04T18:56:49.848Z,46.33
2018-05-04T18:59:16.176Z,46.27
2018-05-04T19:01:42.498Z,46.31
2018-05-04T19:04:08.852Z,46.28
2018-05-04T19:06:35.214Z,46.30
2018-05-04T19:09:01.578Z,46.32
2018-05-04T19:11:27.906Z,46.28
2018-05-04T19:13:54.262Z,46.25
2018-05-04T19:16:20.591Z,46.22
2018-05-04T19:18:46.971Z,46.23
2018-05-04T19:21:13.345Z,46.18
2018-05-04T19:23:39.663Z,46.29
2018-05-04T19:26:06.018Z,46.27
2018-05-04T19:28:32.331Z,46.23
2018-05-04T19:30:58.706Z,46.24
2018-05-04T19:33:25.020Z,46.24
2018-05-04T19:35:51.333Z,46.19
2018-05-04T19:38:17.693Z,46.19
2018-05-04T19:40:44.004Z,46.19
2018-05-04T19:43:10.364Z,46.19
2018-05-04T19:45:36.700Z,46.19
2018-05-04T19:48:03.062Z,46.15
2018-05-04T19:50:29.425Z,46.11
2018-05-04T19:52:55.788Z,46.16
2018-05-04T19:55:22.108Z,46.15
2018-05-04T19:57:48.481Z,46.07
2018-05-04T20:00:14.800Z,46.02
2018-05-04T20:02:41.159Z,46.08
2018-05-04T20:05:07.473Z,46.02
2018-05-04T20:07:33.799Z,46.02
2018-05-04T20:10:00.157Z,45.97
2018-05-04T20:12:26.480Z,45.99
2018-05-04T20:14:52.832Z,45.97
2018-05-04T20:17:19.193Z,45.95
2018-05-04T20:19:45.540Z,45.95
2018-05-04T20:22:11.893Z,45.95
2018-05-04T20:24:38.246Z,45.93
2018-05-04T20:27:04.612Z,45.98
2018-05-04T20:29:30.944Z,45.93
2018-05-04T20:31:57.304Z,45.93
2018-05-04T20:34:23.631Z,45.86
2018-05-04T20:36:50.000Z,45.89
2018-05-04T20:39:16.332Z,45.85
2018-05-04T20:41:42.687Z,45.80
2018-05-04T20:44:09.123Z,45.85
2018-05-04T20:46:35.389Z,45.86
2018-05-04T20:49:01.722Z,45.80
2018-05-04T20:51:28.124Z,45.77
2018-05-04T20:53:54.441Z,45.77
2018-05-04T20:56:20.773Z,45.73
2018-05-04T20:58:47.137Z,45.70
2018-05-04T21:01:13.501Z,45.66
2018-05-04T21:03:39.804Z,45.67
2018-05-04T21:06:06.180Z,45.72
2018-05-04T21:08:32.496Z,45.64
2018-05-04T21:10:58.827Z,45.73
2018-05-04T21:13:25.179Z,45.70
2018-05-04T21:15:51.531Z,45.67
2018-05-04T21:18:17.848Z,45.57
2018-05-04T21:20:44.207Z,45.73
2018-05-04T21:23:10.535Z,45.67
2018-05-04T21:25:36.921Z,45.61
2018-05-04T21:28:03.252Z,45.72
2018-05-04T21:30:29.613Z,45.68
2018-05-04T21:32:55.994Z,45.76
2018-05-04T21:35:22.334Z,45.75
2018-05-04T21:37:48.652Z,45.71
2018-05-04T21:40:14.990Z,45.70
2018-05-04T21:42:41.344Z,45.68
2018-05-04T21:45:07.703Z,45.74
2018-05-04T21:47:34.080Z,45.67
2018-05-04T21:50:00.424Z,45.76
2018-05-04T21:52:26.792Z,45.73
2018-05-04T21:54:53.168Z,45.68
2018-05-04T21:57:19.476Z,45.72
2018-05-04T21:59:45.812Z,45.79
2018-05-04T22:02:12.205Z,45.70
2018-05-04T22:04:38.531Z,45.76
2018-05-04T22:07:04.904Z,45.67
2018-05-04T22:09:31.275Z,45.83
2018-05-04T22:11:57.628Z,45.73
2018-05-04T22:14:23.950Z,45.69
2018-05-04T22:16:50.380Z,45.73
2018-05-04T22:19:16.732Z,45.75
2018-05-04T22:21:43.090Z,45.76
2018-05-04T22:24:09.457Z,45.77
2018-05-04T22:26:35.861Z,45.70
2018-05-04T22:29:02.193Z,45.80
2018-05-04T22:31:28.513Z,45.76
2018-05-04T22:33:54.828Z,45.71
2018-05-04T22:36:21.148Z,45.81
2018-05-04T22:38:47.560Z,45.72
2018-05-04T22:41:13.879Z,45.76
2018-05-04T22:43:40.236Z,45.67
2018-05-04T22:46:06.585Z,45.76
2018-05-04T22:48:32.953Z,45.70
2018-05-04T22:50:59.336Z,45.67
2018-05-04T22:53:25.706Z,45.73
2018-05-04T22:55:52.059Z,45.67
2018-05-04T22:58:18.387Z,45.78
2018-05-04T23:00:44.753Z,45.77
2018-05-04T23:03:11.145Z,45.77
2018-05-04T23:05:37.508Z,45.80
2018-05-04T23:08:03.872Z,45.80
2018-05-04T23:10:30.220Z,45.77
2018-05-04T23:12:56.564Z,45.83
2018-05-04T23:15:22.912Z,45.80
2018-05-04T23:17:49.231Z,45.79
2018-05-04T23:20:15.579Z,45.84
2018-05-04T23:22:41.924Z,45.85
2018-05-04T23:25:08.227Z,45.83
2018-05-04T23:27:34.627Z,45.79
2018-05-04T23:30:00.951Z,45.73
2018-05-04T23:32:27.273Z,45.78
2018-05-04T23:34:53.628Z,45.83
2018-05-04T23:37:20.003Z,45.82
2018-05-04T23:39:46.344Z,45.80
2018-05-04T23:42:12.693Z,45.86
2018-05-04T23:44:39.009Z,45.83
2018-05-04T23:47:05.377Z,45.80
2018-05-04T23:49:31.735Z,45.83
2018-05-04T23:51:58.064Z,45.83
2018-05-04T23:54:24.423Z,45.79
2018-05-04T23:56:50.738Z,45.79
2018-05-04T23:59:17.062Z,45.79
